Birk — V2BF5 — position and weather

sailwx.info

Track history (hours):
 
Tides and Currents Weather Stations Pressure Air Temp Water Temp Dewpoint Dewpoint Depression Visibility Wind Speed Wind Dir Waves Ship Positions

Birk

Last reported at 2016-May-22 03:16 UTC. Time now 2016-May-25 18:55 UTC.
Position N 10°55' W 061°60'.

Length 132 m; draft 6.9 m.

Type: Ship. MMSI: 304535000.

Date/timePositionNaut miles runAvg speedWind from/ knotsBaromVisibWave heightAir tempDewpointWater temp
2016-May-22 03:16N 10°55' W 061°60'1115.7
2016-May-22 02:33N 10°48' W 061°51'1615.8
2016-May-22 01:33N 10°35' W 061°43'1515.1
2016-May-22 00:33N 10°23' W 061°33'3 3.3
2016-May-21 23:32N 10°24' W 061°30'0 0.0
2016-May-21 22:32N 10°24' W 061°30'0 0.0
2016-May-21 21:27N 10°24' W 061°30'0 0.0
2016-May-21 20:19N 10°24' W 061°30'0 0.0
2016-May-21 19:32N 10°24' W 061°30'4 3.8
2016-May-21 18:33N 10°23' W 061°33'2 1.6
2016-May-21 17:32N 10°23' W 061°35'0 0.0
2016-May-21 16:32N 10°23' W 061°35'0 0.0
2016-May-21 15:34N 10°23' W 061°35'0 0.0
2016-May-21 14:34N 10°23' W 061°35'0 0.0
2016-May-21 13:34N 10°23' W 061°35'0 0.0
2016-May-21 12:27N 10°23' W 061°35'0 0.0
2016-May-21 11:33N 10°23' W 061°35'0 0.0
2016-May-21 10:32N 10°23' W 061°35'0 0.0
2016-May-21 09:32N 10°23' W 061°35'0 0.0
2016-May-21 08:33N 10°23' W 061°35'3 2.9
2016-May-21 07:33N 10°24' W 061°37'1211.7
2016-May-21 06:33N 10°35' W 061°43'1010.4
2016-May-21 05:33N 10°44' W 061°48'11 9.5
2016-May-21 04:26N 10°53' W 061°52'  
2016-May-17 19:11N 16°14' W 061°33'0 0.0
2016-May-17 18:32N 16°14' W 061°33'0 0.0
2016-May-17 17:32N 16°14' W 061°33'0 0.0
2016-May-17 16:30N 16°14' W 061°33'0 0.0
2016-May-17 15:30N 16°14' W 061°33'0 0.0
2016-May-17 14:24N 16°14' W 061°33'0 0.0
2016-May-17 13:20N 16°14' W 061°33'0 0.0
2016-May-17 12:24N 16°14' W 061°33'0 0.0
2016-May-17 11:13N 16°14' W 061°33'0 0.0
2016-May-17 10:33N 16°14' W 061°33'1 1.4
2016-May-17 09:33N 16°13' W 061°32'23 1.0
2016-May-16 10:33N 16°12' W 061°56'1313.2
2016-May-16 09:33N 16°23' W 062°04'1313.0
2016-May-16 08:33N 16°33' W 062°12'1312.9
2016-May-16 07:33N 16°43' W 062°21'7612.4
2016-May-16 01:27N 17°45' W 063°06'1313.4
2016-May-16 00:29N 17°58' W 063°06'4 0.3
2016-May-15 10:18N 18°00' W 063°03'4 5.4
2016-May-15 09:31N 18°01' W 063°07'9 9.5
2016-May-15 08:32N 18°02' W 063°17'1010.1
2016-May-15 07:33N 18°03' W 063°27'1410.2
2016-May-15 06:08N 18°06' W 063°42'6010.6
2016-May-15 00:27N 18°12' W 064°45'7710.6
2016-May-14 17:12N 18°31' W 066°04'5 0.3
2016-May-13 23:32N 18°26' W 066°05'5 5.2
2016-May-13 22:34N 18°31' W 066°08'9 8.4
2016-May-13 21:33N 18°33' W 066°16'  
Track history (hours):
 
Tides and Currents Weather Stations Pressure Air Temp Water Temp Dewpoint Dewpoint Depression Visibility Wind Speed Wind Dir Waves Ship Positions

Birk

Last reported at 2016-May-22 03:16 UTC. Time now 2016-May-25 18:55 UTC.
Position N 10°55' W 061°60'.

Length 132 m; draft 6.9 m.

Type: Ship. MMSI: 304535000.

Date/timePositionNaut miles runAvg speedWind from/ knotsBaromVisibWave heightAir tempDewpointWater temp
2016-May-22 03:16N 10°55' W 061°60'1115.7
2016-May-22 02:33N 10°48' W 061°51'1615.8
2016-May-22 01:33N 10°35' W 061°43'1515.1
2016-May-22 00:33N 10°23' W 061°33'3 3.3
2016-May-21 23:32N 10°24' W 061°30'0 0.0
2016-May-21 22:32N 10°24' W 061°30'0 0.0
2016-May-21 21:27N 10°24' W 061°30'0 0.0
2016-May-21 20:19N 10°24' W 061°30'0 0.0
2016-May-21 19:32N 10°24' W 061°30'4 3.8
2016-May-21 18:33N 10°23' W 061°33'2 1.6
2016-May-21 17:32N 10°23' W 061°35'0 0.0
2016-May-21 16:32N 10°23' W 061°35'0 0.0
2016-May-21 15:34N 10°23' W 061°35'0 0.0
2016-May-21 14:34N 10°23' W 061°35'0 0.0
2016-May-21 13:34N 10°23' W 061°35'0 0.0
2016-May-21 12:27N 10°23' W 061°35'0 0.0
2016-May-21 11:33N 10°23' W 061°35'0 0.0
2016-May-21 10:32N 10°23' W 061°35'0 0.0
2016-May-21 09:32N 10°23' W 061°35'0 0.0
2016-May-21 08:33N 10°23' W 061°35'3 2.9
2016-May-21 07:33N 10°24' W 061°37'1211.7
2016-May-21 06:33N 10°35' W 061°43'1010.4
2016-May-21 05:33N 10°44' W 061°48'11 9.5
2016-May-21 04:26N 10°53' W 061°52'  
2016-May-17 19:11N 16°14' W 061°33'0 0.0
2016-May-17 18:32N 16°14' W 061°33'0 0.0
2016-May-17 17:32N 16°14' W 061°33'0 0.0
2016-May-17 16:30N 16°14' W 061°33'0 0.0
2016-May-17 15:30N 16°14' W 061°33'0 0.0
2016-May-17 14:24N 16°14' W 061°33'0 0.0
2016-May-17 13:20N 16°14' W 061°33'0 0.0
2016-May-17 12:24N 16°14' W 061°33'0 0.0
2016-May-17 11:13N 16°14' W 061°33'0 0.0
2016-May-17 10:33N 16°14' W 061°33'1 1.4
2016-May-17 09:33N 16°13' W 061°32'23 1.0
2016-May-16 10:33N 16°12' W 061°56'1313.2
2016-May-16 09:33N 16°23' W 062°04'1313.0
2016-May-16 08:33N 16°33' W 062°12'1312.9
2016-May-16 07:33N 16°43' W 062°21'7612.4
2016-May-16 01:27N 17°45' W 063°06'1313.4
2016-May-16 00:29N 17°58' W 063°06'4 0.3
2016-May-15 10:18N 18°00' W 063°03'4 5.4
2016-May-15 09:31N 18°01' W 063°07'9 9.5
2016-May-15 08:32N 18°02' W 063°17'1010.1
2016-May-15 07:33N 18°03' W 063°27'1410.2
2016-May-15 06:08N 18°06' W 063°42'6010.6
2016-May-15 00:27N 18°12' W 064°45'7710.6
2016-May-14 17:12N 18°31' W 066°04'5 0.3
2016-May-13 23:32N 18°26' W 066°05'5 5.2
2016-May-13 22:34N 18°31' W 066°08'9 8.4
2016-May-13 21:33N 18°33' W 066°16'  

Dump ship's entire track history